sensor_id;sensor_type;location;lat;lon;timestamp;P1;durP1;ratioP1;P2;durP2;ratioP2
4756;SDS011;2392;52.578;13.426;2024-03-08T00:01:55;39.83;;;17.70;;
4756;SDS011;2392;52.578;13.426;2024-03-08T00:04:24;38.10;;;17.73;;
4756;SDS011;2392;52.578;13.426;2024-03-08T00:06:51;45.50;;;18.90;;
4756;SDS011;2392;52.578;13.426;2024-03-08T00:09:17;46.13;;;17.73;;
4756;SDS011;2392;52.578;13.426;2024-03-08T00:11:44;41.57;;;18.10;;
4756;SDS011;2392;52.578;13.426;2024-03-08T00:14:11;41.67;;;17.10;;
4756;SDS011;2392;52.578;13.426;2024-03-08T00:16:38;49.10;;;19.03;;
4756;SDS011;2392;52.578;13.426;2024-03-08T00:19:08;44.43;;;16.63;;
4756;SDS011;2392;52.578;13.426;2024-03-08T00:21:36;37.73;;;15.90;;
4756;SDS011;2392;52.578;13.426;2024-03-08T00:24:03;43.70;;;17.70;;
4756;SDS011;2392;52.578;13.426;2024-03-08T00:26:31;38.63;;;16.60;;
4756;SDS011;2392;52.578;13.426;2024-03-08T00:28:58;39.83;;;17.90;;
4756;SDS011;2392;52.578;13.426;2024-03-08T00:31:24;41.40;;;17.90;;
4756;SDS011;2392;52.578;13.426;2024-03-08T00:33:51;39.50;;;17.53;;
4756;SDS011;2392;52.578;13.426;2024-03-08T00:36:18;43.00;;;16.10;;
4756;SDS011;2392;52.578;13.426;2024-03-08T00:38:46;39.17;;;16.37;;
4756;SDS011;2392;52.578;13.426;2024-03-08T00:41:13;43.90;;;18.40;;
4756;SDS011;2392;52.578;13.426;2024-03-08T00:43:40;39.87;;;16.43;;
4756;SDS011;2392;52.578;13.426;2024-03-08T00:46:06;41.43;;;17.23;;
4756;SDS011;2392;52.578;13.426;2024-03-08T00:48:33;40.60;;;16.80;;
4756;SDS011;2392;52.578;13.426;2024-03-08T00:51:01;38.10;;;17.73;;
4756;SDS011;2392;52.578;13.426;2024-03-08T00:53:28;46.67;;;18.50;;
4756;SDS011;2392;52.578;13.426;2024-03-08T00:55:56;45.90;;;18.30;;
4756;SDS011;2392;52.578;13.426;2024-03-08T00:58:23;41.90;;;18.60;;
4756;SDS011;2392;52.578;13.426;2024-03-08T01:00:49;44.50;;;17.90;;
4756;SDS011;2392;52.578;13.426;2024-03-08T01:03:16;41.87;;;18.17;;
4756;SDS011;2392;52.578;13.426;2024-03-08T01:05:43;44.20;;;17.63;;
4756;SDS011;2392;52.578;13.426;2024-03-08T01:08:10;38.30;;;16.30;;
4756;SDS011;2392;52.578;13.426;2024-03-08T01:10:37;42.90;;;18.27;;
4756;SDS011;2392;52.578;13.426;2024-03-08T01:13:05;41.30;;;17.03;;
4756;SDS011;2392;52.578;13.426;2024-03-08T01:15:31;44.37;;;19.03;;
4756;SDS011;2392;52.578;13.426;2024-03-08T01:17:58;45.83;;;19.50;;
4756;SDS011;2392;52.578;13.426;2024-03-08T01:20:25;41.00;;;18.80;;
4756;SDS011;2392;52.578;13.426;2024-03-08T01:22:53;45.00;;;19.00;;
4756;SDS011;2392;52.578;13.426;2024-03-08T01:25:19;41.13;;;18.70;;
4756;SDS011;2392;52.578;13.426;2024-03-08T01:27:46;44.47;;;19.90;;
4756;SDS011;2392;52.578;13.426;2024-03-08T01:30:14;45.60;;;21.10;;
4756;SDS011;2392;52.578;13.426;2024-03-08T01:32:42;44.87;;;21.10;;
4756;SDS011;2392;52.578;13.426;2024-03-08T01:35:09;49.20;;;20.63;;
4756;SDS011;2392;52.578;13.426;2024-03-08T01:37:36;42.37;;;20.13;;
4756;SDS011;2392;52.578;13.426;2024-03-08T01:40:03;42.73;;;20.50;;
4756;SDS011;2392;52.578;13.426;2024-03-08T01:42:30;41.13;;;18.83;;
4756;SDS011;2392;52.578;13.426;2024-03-08T01:44:57;38.97;;;17.50;;
4756;SDS011;2392;52.578;13.426;2024-03-08T01:47:24;45.43;;;19.37;;
4756;SDS011;2392;52.578;13.426;2024-03-08T01:49:51;45.10;;;20.93;;
4756;SDS011;2392;52.578;13.426;2024-03-08T01:52:18;45.33;;;19.40;;
4756;SDS011;2392;52.578;13.426;2024-03-08T01:54:48;39.17;;;17.43;;
4756;SDS011;2392;52.578;13.426;2024-03-08T01:57:16;39.40;;;17.63;;
4756;SDS011;2392;52.578;13.426;2024-03-08T01:59:43;38.60;;;18.00;;
4756;SDS011;2392;52.578;13.426;2024-03-08T02:02:09;40.83;;;18.70;;
4756;SDS011;2392;52.578;13.426;2024-03-08T02:04:40;44.17;;;19.73;;
4756;SDS011;2392;52.578;13.426;2024-03-08T02:07:06;40.63;;;18.33;;
4756;SDS011;2392;52.578;13.426;2024-03-08T02:09:33;44.07;;;18.67;;
4756;SDS011;2392;52.578;13.426;2024-03-08T02:12:00;39.73;;;17.87;;
4756;SDS011;2392;52.578;13.426;2024-03-08T02:14:32;40.87;;;19.17;;
4756;SDS011;2392;52.578;13.426;2024-03-08T02:17:00;40.37;;;17.53;;
4756;SDS011;2392;52.578;13.426;2024-03-08T02:19:26;48.00;;;19.43;;
4756;SDS011;2392;52.578;13.426;2024-03-08T02:21:54;44.93;;;17.73;;
4756;SDS011;2392;52.578;13.426;2024-03-08T02:24:22;41.17;;;17.07;;
4756;SDS011;2392;52.578;13.426;2024-03-08T02:26:49;43.47;;;19.17;;
4756;SDS011;2392;52.578;13.426;2024-03-08T02:29:16;40.53;;;18.53;;
4756;SDS011;2392;52.578;13.426;2024-03-08T02:31:43;43.07;;;19.67;;
4756;SDS011;2392;52.578;13.426;2024-03-08T02:34:10;43.53;;;18.23;;
4756;SDS011;2392;52.578;13.426;2024-03-08T02:36:36;47.67;;;20.17;;
4756;SDS011;2392;52.578;13.426;2024-03-08T02:39:05;50.90;;;19.87;;
4756;SDS011;2392;52.578;13.426;2024-03-08T02:41:31;40.67;;;18.40;;
4756;SDS011;2392;52.578;13.426;2024-03-08T02:43:58;46.80;;;19.47;;
4756;SDS011;2392;52.578;13.426;2024-03-08T02:46:25;42.43;;;18.47;;
4756;SDS011;2392;52.578;13.426;2024-03-08T02:48:52;40.83;;;18.70;;
4756;SDS011;2392;52.578;13.426;2024-03-08T02:51:19;47.23;;;18.00;;
4756;SDS011;2392;52.578;13.426;2024-03-08T02:53:45;48.87;;;20.57;;
4756;SDS011;2392;52.578;13.426;2024-03-08T02:56:15;45.07;;;18.90;;
4756;SDS011;2392;52.578;13.426;2024-03-08T02:58:42;48.03;;;19.80;;
4756;SDS011;2392;52.578;13.426;2024-03-08T03:01:13;43.30;;;18.97;;
4756;SDS011;2392;52.578;13.426;2024-03-08T03:03:40;43.63;;;19.93;;
4756;SDS011;2392;52.578;13.426;2024-03-08T03:06:07;49.63;;;20.50;;
4756;SDS011;2392;52.578;13.426;2024-03-08T03:08:33;43.73;;;19.53;;
4756;SDS011;2392;52.578;13.426;2024-03-08T03:11:00;42.63;;;17.90;;
4756;SDS011;2392;52.578;13.426;2024-03-08T03:13:28;39.60;;;17.37;;
4756;SDS011;2392;52.578;13.426;2024-03-08T03:15:55;42.63;;;19.33;;
4756;SDS011;2392;52.578;13.426;2024-03-08T03:18:23;42.27;;;18.17;;
4756;SDS011;2392;52.578;13.426;2024-03-08T03:20:51;44.57;;;19.10;;
4756;SDS011;2392;52.578;13.426;2024-03-08T03:23:18;44.00;;;18.60;;
4756;SDS011;2392;52.578;13.426;2024-03-08T03:25:45;41.67;;;17.37;;
4756;SDS011;2392;52.578;13.426;2024-03-08T03:28:12;42.60;;;18.57;;
4756;SDS011;2392;52.578;13.426;2024-03-08T03:30:44;36.73;;;15.37;;
4756;SDS011;2392;52.578;13.426;2024-03-08T03:33:11;39.10;;;16.70;;
4756;SDS011;2392;52.578;13.426;2024-03-08T03:35:40;40.60;;;17.50;;
4756;SDS011;2392;52.578;13.426;2024-03-08T03:38:08;42.07;;;17.80;;
4756;SDS011;2392;52.578;13.426;2024-03-08T03:40:35;44.30;;;19.80;;
4756;SDS011;2392;52.578;13.426;2024-03-08T03:43:02;43.57;;;18.80;;
4756;SDS011;2392;52.578;13.426;2024-03-08T03:45:29;40.97;;;17.80;;
4756;SDS011;2392;52.578;13.426;2024-03-08T03:48:01;40.40;;;17.63;;
4756;SDS011;2392;52.578;13.426;2024-03-08T03:50:28;49.20;;;17.87;;
4756;SDS011;2392;52.578;13.426;2024-03-08T03:52:54;38.87;;;18.23;;
4756;SDS011;2392;52.578;13.426;2024-03-08T03:55:22;38.37;;;17.43;;
4756;SDS011;2392;52.578;13.426;2024-03-08T03:57:48;44.67;;;18.93;;
4756;SDS011;2392;52.578;13.426;2024-03-08T04:00:15;47.20;;;19.10;;
4756;SDS011;2392;52.578;13.426;2024-03-08T04:02:42;41.47;;;17.17;;
4756;SDS011;2392;52.578;13.426;2024-03-08T04:05:10;43.03;;;19.73;;
4756;SDS011;2392;52.578;13.426;2024-03-08T04:07:37;40.27;;;18.13;;
4756;SDS011;2392;52.578;13.426;2024-03-08T04:10:04;45.77;;;19.57;;
4756;SDS011;2392;52.578;13.426;2024-03-08T04:12:32;39.07;;;17.00;;
4756;SDS011;2392;52.578;13.426;2024-03-08T04:14:59;39.43;;;17.80;;
4756;SDS011;2392;52.578;13.426;2024-03-08T04:17:25;39.77;;;17.63;;
4756;SDS011;2392;52.578;13.426;2024-03-08T04:19:52;41.93;;;18.10;;
4756;SDS011;2392;52.578;13.426;2024-03-08T04:22:20;47.93;;;19.37;;
4756;SDS011;2392;52.578;13.426;2024-03-08T04:24:47;44.57;;;19.27;;
4756;SDS011;2392;52.578;13.426;2024-03-08T04:27:16;42.53;;;17.83;;
4756;SDS011;2392;52.578;13.426;2024-03-08T04:29:43;42.70;;;17.40;;
4756;SDS011;2392;52.578;13.426;2024-03-08T04:32:09;43.70;;;18.13;;
4756;SDS011;2392;52.578;13.426;2024-03-08T04:34:38;43.43;;;17.27;;
4756;SDS011;2392;52.578;13.426;2024-03-08T04:37:05;44.37;;;17.93;;
4756;SDS011;2392;52.578;13.426;2024-03-08T04:39:33;42.53;;;17.93;;
4756;SDS011;2392;52.578;13.426;2024-03-08T04:42:00;40.57;;;17.40;;
4756;SDS011;2392;52.578;13.426;2024-03-08T04:44:29;42.00;;;17.67;;
4756;SDS011;2392;52.578;13.426;2024-03-08T04:46:56;42.07;;;19.23;;
4756;SDS011;2392;52.578;13.426;2024-03-08T04:49:23;42.70;;;17.87;;
4756;SDS011;2392;52.578;13.426;2024-03-08T04:51:50;46.83;;;17.67;;
4756;SDS011;2392;52.578;13.426;2024-03-08T04:54:16;42.23;;;19.07;;
4756;SDS011;2392;52.578;13.426;2024-03-08T04:56:45;42.53;;;17.90;;
4756;SDS011;2392;52.578;13.426;2024-03-08T04:59:11;40.40;;;17.10;;
4756;SDS011;2392;52.578;13.426;2024-03-08T05:01:38;46.00;;;18.63;;
4756;SDS011;2392;52.578;13.426;2024-03-08T05:04:05;40.47;;;17.43;;
4756;SDS011;2392;52.578;13.426;2024-03-08T05:06:32;38.83;;;17.70;;
4756;SDS011;2392;52.578;13.426;2024-03-08T05:08:58;42.87;;;18.07;;
4756;SDS011;2392;52.578;13.426;2024-03-08T05:11:25;41.93;;;19.20;;
4756;SDS011;2392;52.578;13.426;2024-03-08T05:13:53;40.63;;;18.47;;
4756;SDS011;2392;52.578;13.426;2024-03-08T05:16:20;45.03;;;18.40;;
4756;SDS011;2392;52.578;13.426;2024-03-08T05:18:48;41.67;;;18.60;;
4756;SDS011;2392;52.578;13.426;2024-03-08T05:21:14;44.67;;;19.23;;
4756;SDS011;2392;52.578;13.426;2024-03-08T05:23:45;49.00;;;18.80;;
4756;SDS011;2392;52.578;13.426;2024-03-08T05:26:12;42.37;;;19.53;;
4756;SDS011;2392;52.578;13.426;2024-03-08T05:28:39;44.07;;;20.03;;
4756;SDS011;2392;52.578;13.426;2024-03-08T05:31:07;46.47;;;17.17;;
4756;SDS011;2392;52.578;13.426;2024-03-08T05:33:34;42.70;;;19.13;;
4756;SDS011;2392;52.578;13.426;2024-03-08T05:36:00;44.10;;;18.73;;
4756;SDS011;2392;52.578;13.426;2024-03-08T05:38:28;43.37;;;18.40;;
4756;SDS011;2392;52.578;13.426;2024-03-08T05:40:54;40.70;;;18.03;;
4756;SDS011;2392;52.578;13.426;2024-03-08T05:43:21;43.67;;;20.00;;
4756;SDS011;2392;52.578;13.426;2024-03-08T05:45:47;46.20;;;20.03;;
4756;SDS011;2392;52.578;13.426;2024-03-08T05:48:15;41.70;;;19.50;;
4756;SDS011;2392;52.578;13.426;2024-03-08T05:50:43;44.13;;;18.97;;
4756;SDS011;2392;52.578;13.426;2024-03-08T05:53:10;40.67;;;18.37;;
4756;SDS011;2392;52.578;13.426;2024-03-08T05:55:37;48.07;;;20.13;;
4756;SDS011;2392;52.578;13.426;2024-03-08T05:58:04;48.03;;;20.07;;
4756;SDS011;2392;52.578;13.426;2024-03-08T06:00:33;51.10;;;20.80;;
4756;SDS011;2392;52.578;13.426;2024-03-08T06:03:01;50.77;;;21.00;;
4756;SDS011;2392;52.578;13.426;2024-03-08T06:05:30;41.50;;;18.90;;
4756;SDS011;2392;52.578;13.426;2024-03-08T06:07:56;47.20;;;19.97;;
4756;SDS011;2392;52.578;13.426;2024-03-08T06:10:23;52.87;;;19.77;;
4756;SDS011;2392;52.578;13.426;2024-03-08T06:12:50;48.33;;;20.20;;
4756;SDS011;2392;52.578;13.426;2024-03-08T06:15:16;45.50;;;19.70;;
4756;SDS011;2392;52.578;13.426;2024-03-08T06:17:46;43.57;;;22.17;;
4756;SDS011;2392;52.578;13.426;2024-03-08T06:20:12;49.80;;;21.10;;
4756;SDS011;2392;52.578;13.426;2024-03-08T06:22:41;41.70;;;19.47;;
4756;SDS011;2392;52.578;13.426;2024-03-08T06:25:09;46.60;;;20.90;;
4756;SDS011;2392;52.578;13.426;2024-03-08T06:27:39;45.40;;;20.17;;
4756;SDS011;2392;52.578;13.426;2024-03-08T06:30:07;62.80;;;25.33;;
4756;SDS011;2392;52.578;13.426;2024-03-08T06:32:35;54.43;;;22.63;;
4756;SDS011;2392;52.578;13.426;2024-03-08T06:35:02;53.03;;;24.40;;
4756;SDS011;2392;52.578;13.426;2024-03-08T06:37:31;48.97;;;22.70;;
4756;SDS011;2392;52.578;13.426;2024-03-08T06:39:59;51.23;;;22.03;;
4756;SDS011;2392;52.578;13.426;2024-03-08T06:42:28;53.87;;;24.13;;
4756;SDS011;2392;52.578;13.426;2024-03-08T06:44:58;47.67;;;20.40;;
4756;SDS011;2392;52.578;13.426;2024-03-08T06:47:29;45.93;;;19.40;;
4756;SDS011;2392;52.578;13.426;2024-03-08T06:49:56;45.87;;;19.90;;
4756;SDS011;2392;52.578;13.426;2024-03-08T06:52:22;49.53;;;20.33;;
4756;SDS011;2392;52.578;13.426;2024-03-08T06:54:49;47.30;;;21.87;;
4756;SDS011;2392;52.578;13.426;2024-03-08T06:57:18;48.90;;;22.30;;
4756;SDS011;2392;52.578;13.426;2024-03-08T06:59:46;45.40;;;19.37;;
4756;SDS011;2392;52.578;13.426;2024-03-08T07:02:13;46.97;;;21.87;;
4756;SDS011;2392;52.578;13.426;2024-03-08T07:04:40;45.50;;;20.70;;
4756;SDS011;2392;52.578;13.426;2024-03-08T07:07:06;46.67;;;20.53;;
4756;SDS011;2392;52.578;13.426;2024-03-08T07:09:34;54.40;;;22.60;;
4756;SDS011;2392;52.578;13.426;2024-03-08T07:12:01;44.70;;;20.30;;
4756;SDS011;2392;52.578;13.426;2024-03-08T07:14:30;50.07;;;22.07;;
4756;SDS011;2392;52.578;13.426;2024-03-08T07:16:57;54.83;;;23.23;;
4756;SDS011;2392;52.578;13.426;2024-03-08T07:19:23;50.43;;;21.50;;
4756;SDS011;2392;52.578;13.426;2024-03-08T07:21:50;46.80;;;21.77;;
4756;SDS011;2392;52.578;13.426;2024-03-08T07:24:16;52.10;;;22.10;;
4756;SDS011;2392;52.578;13.426;2024-03-08T07:27:03;58.07;;;22.50;;
4756;SDS011;2392;52.578;13.426;2024-03-08T07:29:32;43.80;;;21.70;;
4756;SDS011;2392;52.578;13.426;2024-03-08T07:31:59;48.43;;;23.03;;
4756;SDS011;2392;52.578;13.426;2024-03-08T07:34:37;48.67;;;22.53;;
4756;SDS011;2392;52.578;13.426;2024-03-08T07:37:05;49.57;;;21.77;;
4756;SDS011;2392;52.578;13.426;2024-03-08T07:39:36;49.47;;;21.27;;
4756;SDS011;2392;52.578;13.426;2024-03-08T07:42:03;49.90;;;23.50;;
4756;SDS011;2392;52.578;13.426;2024-03-08T07:44:31;45.83;;;21.60;;
4756;SDS011;2392;52.578;13.426;2024-03-08T07:46:58;50.60;;;21.13;;
4756;SDS011;2392;52.578;13.426;2024-03-08T07:49:25;51.43;;;21.80;;
4756;SDS011;2392;52.578;13.426;2024-03-08T07:51:52;46.13;;;22.93;;
4756;SDS011;2392;52.578;13.426;2024-03-08T07:54:18;47.10;;;23.03;;
4756;SDS011;2392;52.578;13.426;2024-03-08T07:56:45;53.37;;;21.77;;
4756;SDS011;2392;52.578;13.426;2024-03-08T07:59:13;49.53;;;22.63;;
4756;SDS011;2392;52.578;13.426;2024-03-08T08:01:41;50.50;;;21.77;;
4756;SDS011;2392;52.578;13.426;2024-03-08T08:04:09;48.90;;;22.13;;
4756;SDS011;2392;52.578;13.426;2024-03-08T08:06:37;54.87;;;22.23;;
4756;SDS011;2392;52.578;13.426;2024-03-08T08:09:06;48.63;;;23.70;;
4756;SDS011;2392;52.578;13.426;2024-03-08T08:11:39;47.67;;;22.10;;
4756;SDS011;2392;52.578;13.426;2024-03-08T08:14:08;50.77;;;24.40;;
4756;SDS011;2392;52.578;13.426;2024-03-08T08:16:35;53.17;;;22.50;;
4756;SDS011;2392;52.578;13.426;2024-03-08T08:19:04;46.37;;;21.50;;
4756;SDS011;2392;52.578;13.426;2024-03-08T08:21:32;48.73;;;21.47;;
4756;SDS011;2392;52.578;13.426;2024-03-08T08:23:59;51.47;;;23.37;;
4756;SDS011;2392;52.578;13.426;2024-03-08T08:26:28;45.80;;;22.50;;
4756;SDS011;2392;52.578;13.426;2024-03-08T08:28:55;49.30;;;20.23;;
4756;SDS011;2392;52.578;13.426;2024-03-08T08:31:21;50.20;;;23.20;;
4756;SDS011;2392;52.578;13.426;2024-03-08T08:33:48;43.97;;;21.23;;
4756;SDS011;2392;52.578;13.426;2024-03-08T08:36:16;48.07;;;20.43;;
4756;SDS011;2392;52.578;13.426;2024-03-08T08:38:43;55.30;;;21.70;;
4756;SDS011;2392;52.578;13.426;2024-03-08T08:41:10;50.33;;;19.40;;
4756;SDS011;2392;52.578;13.426;2024-03-08T08:43:38;42.57;;;19.50;;
4756;SDS011;2392;52.578;13.426;2024-03-08T08:46:04;47.70;;;20.10;;
4756;SDS011;2392;52.578;13.426;2024-03-08T08:48:31;45.83;;;21.30;;
4756;SDS011;2392;52.578;13.426;2024-03-08T08:50:58;48.50;;;22.50;;
4756;SDS011;2392;52.578;13.426;2024-03-08T08:53:26;52.00;;;21.93;;
4756;SDS011;2392;52.578;13.426;2024-03-08T08:55:53;45.33;;;20.37;;
4756;SDS011;2392;52.578;13.426;2024-03-08T08:58:19;48.23;;;20.60;;
4756;SDS011;2392;52.578;13.426;2024-03-08T09:00:47;48.30;;;21.17;;
4756;SDS011;2392;52.578;13.426;2024-03-08T09:03:15;40.90;;;19.90;;
4756;SDS011;2392;52.578;13.426;2024-03-08T09:05:42;41.70;;;19.63;;
4756;SDS011;2392;52.578;13.426;2024-03-08T09:08:08;45.67;;;21.03;;
4756;SDS011;2392;52.578;13.426;2024-03-08T09:10:36;44.40;;;19.90;;
4756;SDS011;2392;52.578;13.426;2024-03-08T09:13:04;47.77;;;21.07;;
4756;SDS011;2392;52.578;13.426;2024-03-08T09:15:31;49.00;;;20.80;;
4756;SDS011;2392;52.578;13.426;2024-03-08T09:17:58;46.57;;;21.17;;
4756;SDS011;2392;52.578;13.426;2024-03-08T09:20:25;47.97;;;19.47;;
4756;SDS011;2392;52.578;13.426;2024-03-08T09:22:51;44.20;;;21.17;;
4756;SDS011;2392;52.578;13.426;2024-03-08T09:25:18;42.73;;;20.33;;
4756;SDS011;2392;52.578;13.426;2024-03-08T09:27:47;50.47;;;22.47;;
4756;SDS011;2392;52.578;13.426;2024-03-08T09:30:13;51.90;;;22.57;;
4756;SDS011;2392;52.578;13.426;2024-03-08T09:32:40;41.73;;;20.20;;
4756;SDS011;2392;52.578;13.426;2024-03-08T09:35:08;44.90;;;21.60;;
4756;SDS011;2392;52.578;13.426;2024-03-08T09:37:36;44.70;;;21.27;;
4756;SDS011;2392;52.578;13.426;2024-03-08T09:40:03;43.90;;;20.50;;
4756;SDS011;2392;52.578;13.426;2024-03-08T09:42:34;41.23;;;20.27;;
4756;SDS011;2392;52.578;13.426;2024-03-08T09:45:05;46.43;;;21.10;;
4756;SDS011;2392;52.578;13.426;2024-03-08T09:47:35;49.60;;;20.57;;
4756;SDS011;2392;52.578;13.426;2024-03-08T09:50:05;49.13;;;21.07;;
4756;SDS011;2392;52.578;13.426;2024-03-08T09:52:34;40.97;;;18.70;;
4756;SDS011;2392;52.578;13.426;2024-03-08T09:55:03;53.07;;;21.00;;
4756;SDS011;2392;52.578;13.426;2024-03-08T09:57:32;43.57;;;19.90;;
4756;SDS011;2392;52.578;13.426;2024-03-08T09:59:58;44.10;;;19.67;;
4756;SDS011;2392;52.578;13.426;2024-03-08T10:02:26;46.90;;;18.77;;
4756;SDS011;2392;52.578;13.426;2024-03-08T10:04:53;42.00;;;19.17;;
4756;SDS011;2392;52.578;13.426;2024-03-08T10:07:20;48.07;;;21.63;;
4756;SDS011;2392;52.578;13.426;2024-03-08T10:09:46;43.37;;;19.23;;
4756;SDS011;2392;52.578;13.426;2024-03-08T10:12:15;44.20;;;18.90;;
4756;SDS011;2392;52.578;13.426;2024-03-08T10:14:42;41.17;;;19.47;;
4756;SDS011;2392;52.578;13.426;2024-03-08T10:17:09;41.33;;;19.07;;
4756;SDS011;2392;52.578;13.426;2024-03-08T10:19:37;48.37;;;20.40;;
4756;SDS011;2392;52.578;13.426;2024-03-08T10:22:04;41.57;;;19.10;;
4756;SDS011;2392;52.578;13.426;2024-03-08T10:24:32;41.90;;;20.00;;
4756;SDS011;2392;52.578;13.426;2024-03-08T10:26:59;42.43;;;19.87;;
4756;SDS011;2392;52.578;13.426;2024-03-08T10:29:29;40.83;;;17.97;;
4756;SDS011;2392;52.578;13.426;2024-03-08T10:31:57;42.70;;;19.43;;
4756;SDS011;2392;52.578;13.426;2024-03-08T10:34:23;41.60;;;18.63;;
4756;SDS011;2392;52.578;13.426;2024-03-08T10:36:52;42.10;;;21.40;;
4756;SDS011;2392;52.578;13.426;2024-03-08T10:39:22;40.30;;;18.20;;
4756;SDS011;2392;52.578;13.426;2024-03-08T10:41:52;44.50;;;21.33;;
4756;SDS011;2392;52.578;13.426;2024-03-08T10:44:26;42.07;;;19.20;;
4756;SDS011;2392;52.578;13.426;2024-03-08T10:47:07;40.20;;;19.50;;
4756;SDS011;2392;52.578;13.426;2024-03-08T10:49:44;40.87;;;20.50;;
4756;SDS011;2392;52.578;13.426;2024-03-08T10:52:18;37.30;;;18.83;;
4756;SDS011;2392;52.578;13.426;2024-03-08T10:54:45;38.03;;;19.30;;
4756;SDS011;2392;52.578;13.426;2024-03-08T10:57:14;35.70;;;18.20;;
4756;SDS011;2392;52.578;13.426;2024-03-08T10:59:43;39.07;;;19.50;;
4756;SDS011;2392;52.578;13.426;2024-03-08T11:02:11;34.97;;;17.80;;
4756;SDS011;2392;52.578;13.426;2024-03-08T11:04:38;37.10;;;17.03;;
4756;SDS011;2392;52.578;13.426;2024-03-08T11:07:06;39.43;;;18.80;;
4756;SDS011;2392;52.578;13.426;2024-03-08T11:09:35;34.60;;;17.30;;
4756;SDS011;2392;52.578;13.426;2024-03-08T11:12:19;36.50;;;18.50;;
4756;SDS011;2392;52.578;13.426;2024-03-08T11:14:55;38.93;;;17.60;;
4756;SDS011;2392;52.578;13.426;2024-03-08T11:17:26;33.73;;;16.73;;
4756;SDS011;2392;52.578;13.426;2024-03-08T11:20:11;36.77;;;17.20;;
4756;SDS011;2392;52.578;13.426;2024-03-08T11:22:48;32.83;;;17.17;;
4756;SDS011;2392;52.578;13.426;2024-03-08T11:25:34;33.00;;;17.17;;
4756;SDS011;2392;52.578;13.426;2024-03-08T11:28:10;34.37;;;17.00;;
4756;SDS011;2392;52.578;13.426;2024-03-08T11:30:42;33.80;;;18.20;;
4756;SDS011;2392;52.578;13.426;2024-03-08T11:33:11;31.97;;;16.40;;
4756;SDS011;2392;52.578;13.426;2024-03-08T11:35:38;31.13;;;15.07;;
4756;SDS011;2392;52.578;13.426;2024-03-08T11:38:07;31.13;;;16.00;;
4756;SDS011;2392;52.578;13.426;2024-03-08T11:40:35;30.53;;;15.00;;
4756;SDS011;2392;52.578;13.426;2024-03-08T11:43:03;34.83;;;17.23;;
4756;SDS011;2392;52.578;13.426;2024-03-08T11:45:32;36.53;;;18.27;;
4756;SDS011;2392;52.578;13.426;2024-03-08T11:48:01;33.80;;;18.17;;
4756;SDS011;2392;52.578;13.426;2024-03-08T11:50:29;38.00;;;17.60;;
4756;SDS011;2392;52.578;13.426;2024-03-08T11:53:00;34.87;;;18.27;;
4756;SDS011;2392;52.578;13.426;2024-03-08T11:55:27;33.70;;;16.30;;
4756;SDS011;2392;52.578;13.426;2024-03-08T11:58:00;32.97;;;16.43;;
4756;SDS011;2392;52.578;13.426;2024-03-08T12:00:28;33.80;;;17.40;;
4756;SDS011;2392;52.578;13.426;2024-03-08T12:03:06;33.00;;;17.20;;
4756;SDS011;2392;52.578;13.426;2024-03-08T12:05:35;32.30;;;16.63;;
4756;SDS011;2392;52.578;13.426;2024-03-08T12:08:03;33.30;;;16.40;;
4756;SDS011;2392;52.578;13.426;2024-03-08T12:10:32;32.13;;;16.33;;
4756;SDS011;2392;52.578;13.426;2024-03-08T12:13:01;33.27;;;18.63;;
4756;SDS011;2392;52.578;13.426;2024-03-08T12:15:29;30.80;;;16.37;;
4756;SDS011;2392;52.578;13.426;2024-03-08T12:17:58;32.93;;;16.83;;
4756;SDS011;2392;52.578;13.426;2024-03-08T12:20:26;35.17;;;17.40;;
4756;SDS011;2392;52.578;13.426;2024-03-08T12:22:55;34.20;;;17.47;;
4756;SDS011;2392;52.578;13.426;2024-03-08T12:25:22;34.63;;;17.80;;
4756;SDS011;2392;52.578;13.426;2024-03-08T12:27:52;37.63;;;18.00;;
4756;SDS011;2392;52.578;13.426;2024-03-08T12:30:23;34.60;;;16.50;;
4756;SDS011;2392;52.578;13.426;2024-03-08T12:32:55;33.93;;;15.83;;
4756;SDS011;2392;52.578;13.426;2024-03-08T12:35:23;35.47;;;16.77;;
4756;SDS011;2392;52.578;13.426;2024-03-08T12:37:51;34.50;;;15.90;;
4756;SDS011;2392;52.578;13.426;2024-03-08T12:40:24;33.73;;;16.47;;
4756;SDS011;2392;52.578;13.426;2024-03-08T12:42:53;38.47;;;17.10;;
4756;SDS011;2392;52.578;13.426;2024-03-08T12:45:20;35.37;;;16.27;;
4756;SDS011;2392;52.578;13.426;2024-03-08T12:47:49;33.33;;;16.03;;
4756;SDS011;2392;52.578;13.426;2024-03-08T12:50:16;34.57;;;16.67;;
4756;SDS011;2392;52.578;13.426;2024-03-08T12:52:43;33.93;;;16.87;;
4756;SDS011;2392;52.578;13.426;2024-03-08T12:55:10;33.90;;;17.27;;
4756;SDS011;2392;52.578;13.426;2024-03-08T12:57:37;37.10;;;17.63;;
4756;SDS011;2392;52.578;13.426;2024-03-08T13:00:04;37.50;;;18.10;;
4756;SDS011;2392;52.578;13.426;2024-03-08T13:02:39;37.90;;;18.37;;
4756;SDS011;2392;52.578;13.426;2024-03-08T13:05:07;36.50;;;17.97;;
4756;SDS011;2392;52.578;13.426;2024-03-08T13:07:35;35.67;;;18.40;;
4756;SDS011;2392;52.578;13.426;2024-03-08T13:10:03;35.70;;;17.83;;
4756;SDS011;2392;52.578;13.426;2024-03-08T13:12:31;39.63;;;17.77;;
4756;SDS011;2392;52.578;13.426;2024-03-08T13:14:58;37.97;;;19.27;;
4756;SDS011;2392;52.578;13.426;2024-03-08T13:17:25;39.47;;;19.67;;
4756;SDS011;2392;52.578;13.426;2024-03-08T13:19:53;37.63;;;18.20;;
4756;SDS011;2392;52.578;13.426;2024-03-08T13:22:22;36.97;;;17.10;;
4756;SDS011;2392;52.578;13.426;2024-03-08T13:24:50;35.23;;;17.53;;
4756;SDS011;2392;52.578;13.426;2024-03-08T13:27:17;35.83;;;17.50;;
4756;SDS011;2392;52.578;13.426;2024-03-08T13:29:46;35.60;;;17.03;;
4756;SDS011;2392;52.578;13.426;2024-03-08T13:32:14;38.57;;;17.80;;
4756;SDS011;2392;52.578;13.426;2024-03-08T13:34:41;36.40;;;18.07;;
4756;SDS011;2392;52.578;13.426;2024-03-08T13:37:09;33.50;;;16.70;;
4756;SDS011;2392;52.578;13.426;2024-03-08T13:39:36;35.10;;;17.50;;
4756;SDS011;2392;52.578;13.426;2024-03-08T13:42:09;39.13;;;19.93;;
4756;SDS011;2392;52.578;13.426;2024-03-08T13:44:38;36.90;;;18.23;;
4756;SDS011;2392;52.578;13.426;2024-03-08T13:47:06;37.57;;;18.90;;
4756;SDS011;2392;52.578;13.426;2024-03-08T13:49:33;39.90;;;20.17;;
4756;SDS011;2392;52.578;13.426;2024-03-08T13:51:59;40.87;;;21.23;;
4756;SDS011;2392;52.578;13.426;2024-03-08T13:54:27;41.63;;;19.87;;
4756;SDS011;2392;52.578;13.426;2024-03-08T13:56:56;49.50;;;20.70;;
4756;SDS011;2392;52.578;13.426;2024-03-08T13:59:23;41.23;;;20.23;;
4756;SDS011;2392;52.578;13.426;2024-03-08T14:01:54;41.37;;;22.03;;
4756;SDS011;2392;52.578;13.426;2024-03-08T14:04:22;42.30;;;20.97;;
4756;SDS011;2392;52.578;13.426;2024-03-08T14:06:50;41.60;;;19.53;;
4756;SDS011;2392;52.578;13.426;2024-03-08T14:09:21;38.40;;;18.83;;
4756;SDS011;2392;52.578;13.426;2024-03-08T14:11:51;37.50;;;18.13;;
4756;SDS011;2392;52.578;13.426;2024-03-08T14:14:20;36.60;;;17.70;;
4756;SDS011;2392;52.578;13.426;2024-03-08T14:16:48;40.03;;;18.20;;
4756;SDS011;2392;52.578;13.426;2024-03-08T14:19:17;40.70;;;19.57;;
4756;SDS011;2392;52.578;13.426;2024-03-08T14:21:44;38.63;;;18.80;;
4756;SDS011;2392;52.578;13.426;2024-03-08T14:24:15;41.10;;;19.40;;
4756;SDS011;2392;52.578;13.426;2024-03-08T14:26:43;40.53;;;18.93;;
4756;SDS011;2392;52.578;13.426;2024-03-08T14:29:13;38.97;;;18.70;;
4756;SDS011;2392;52.578;13.426;2024-03-08T14:31:39;37.53;;;19.07;;
4756;SDS011;2392;52.578;13.426;2024-03-08T14:34:08;37.27;;;17.30;;
4756;SDS011;2392;52.578;13.426;2024-03-08T14:36:35;36.57;;;17.30;;
4756;SDS011;2392;52.578;13.426;2024-03-08T14:39:03;39.10;;;18.23;;